Time;durP1;ratioP1;P1;durP2;ratioP2;P2;SDS_P1;SDS_P2;PMS_P1;PMS_P2;Temp;Humidity;BMP_temperature;BMP_pressure;BME280_temperature;BME280_humidity;BME280_pressure;Samples;Min_cycle;Max_cycle;Signal;HPM_P1;HPM_P2
2024/01/25 00:00:04;;;;;;;;;4.50;3.50;;;;;9.11;75.63;100870.06;5095676;28;8854;-58
2024/01/25 00:02:32;;;;;;;;;2.00;2.00;;;;;9.12;75.15;100879.75;5095415;28;8838;-58
2024/01/25 00:05:00;;;;;;;;;4.00;3.25;;;;;9.14;75.50;100888.47;5095397;28;8826;-57
2024/01/25 00:07:28;;;;;;;;;4.00;4.00;;;;;9.13;75.69;100892.91;5094435;28;8830;-59
2024/01/25 00:09:57;;;;;;;;;6.25;3.25;;;;;9.14;75.81;100889.34;5096183;28;8830;-58
2024/01/25 00:12:25;;;;;;;;;3.00;3.00;;;;;9.14;75.64;100889.34;5095216;28;8829;-57
2024/01/25 00:14:53;;;;;;;;;2.50;1.50;;;;;9.15;75.41;100891.03;5095135;28;9298;-58
2024/01/25 00:17:21;;;;;;;;;3.75;3.75;;;;;9.16;76.06;100883.91;5095132;28;8838;-59
2024/01/25 00:19:49;;;;;;;;;4.00;3.50;;;;;9.15;75.67;100891.03;5096254;28;9522;-58
2024/01/25 00:22:17;;;;;;;;;4.50;4.50;;;;;9.14;75.63;100889.34;5095962;28;8889;-59
2024/01/25 00:24:45;;;;;;;;;3.25;3.00;;;;;9.13;76.24;100887.59;5095504;28;9514;-58
2024/01/25 00:27:13;;;;;;;;;5.50;4.00;;;;;9.13;75.97;100889.41;5094400;28;8848;-59
2024/01/25 00:29:41;;;;;;;;;5.50;3.50;;;;;9.12;76.00;100891.19;5093702;28;8838;-58
2024/01/25 00:32:08;;;;;;;;;7.00;4.00;;;;;9.13;76.12;100898.22;5094559;28;8834;-60
2024/01/25 00:34:36;;;;;;;;;6.00;4.50;;;;;9.13;75.80;100902.69;5094883;28;9732;-58
2024/01/25 00:37:04;;;;;;;;;4.00;3.00;;;;;9.12;75.95;100891.19;5095158;28;8857;-59
2024/01/25 00:39:32;;;;;;;;;4.25;4.25;;;;;9.12;76.00;100896.50;5095593;28;8834;-59
2024/01/25 00:41:59;;;;;;;;;4.75;2.50;;;;;9.10;76.25;100898.41;5095795;28;8810;-60
2024/01/25 00:44:28;;;;;;;;;6.00;5.00;;;;;9.08;76.15;100889.69;5095812;28;8944;-60
2024/01/25 00:46:56;;;;;;;;;3.50;3.50;;;;;9.07;76.23;100895.06;5095641;28;8846;-60
2024/01/25 00:49:23;;;;;;;;;4.25;3.75;;;;;9.05;76.26;100905.78;5096816;28;8814;-59
2024/01/25 00:51:51;;;;;;;;;0.50;0.50;;;;;9.04;76.10;100909.38;5099089;28;8828;-57
2024/01/25 00:54:19;;;;;;;;;6.25;4.50;;;;;9.03;75.83;100904.19;5099315;28;8834;-59
2024/01/25 00:56:50;;;;;;;;;0.00;0.00;;;;;9.02;76.17;100908.63;5099847;28;8838;-59
2024/01/25 00:59:18;;;;;;;;;1.50;1.50;;;;;9.01;76.03;100906.94;5099331;28;8848;-58
2024/01/25 01:01:46;;;;;;;;;9.00;4.50;;;;;9.02;76.29;100910.41;5099675;28;8856;-58
2024/01/25 01:04:14;;;;;;;;;2.00;1.50;;;;;9.00;76.53;100913.19;5099294;28;8799;-57
2024/01/25 01:06:42;;;;;;;;;0.50;0.50;;;;;9.01;76.54;100908.72;5098240;28;8818;-60
2024/01/25 01:09:10;;;;;;;;;4.00;1.00;;;;;8.99;76.86;100906.16;5098993;28;9560;-58
2024/01/25 01:11:38;;;;;;;;;0.50;0.00;;;;;8.97;76.45;100905.38;5098694;28;8944;-58
2024/01/25 01:14:05;;;;;;;;;2.00;2.00;;;;;8.97;76.78;100908.03;5099226;28;8848;-60
2024/01/25 01:16:35;;;;;;;;;4.50;3.50;;;;;8.97;76.69;100907.19;5098252;28;8846;-58
2024/01/25 01:19:06;;;;;;;;;3.75;3.75;;;;;8.95;76.31;100909.09;5098767;28;8848;-58
2024/01/25 01:21:35;;;;;;;;;3.25;3.25;;;;;8.92;76.84;100910.13;5098962;28;8830;-58
2024/01/25 01:24:03;;;;;;;;;3.00;3.00;;;;;8.92;76.57;100910.13;5098846;28;8818;-58
2024/01/25 01:26:31;;;;;;;;;4.00;4.00;;;;;8.90;76.48;100901.34;5098812;28;8837;-57
2024/01/25 01:28:59;;;;;;;;;7.00;6.00;;;;;8.89;76.49;100904.13;5098739;28;8818;-58
2024/01/25 01:31:27;;;;;;;;;4.50;4.00;;;;;8.87;76.40;100912.16;5099013;28;8825;-60
2024/01/25 01:33:54;;;;;;;;;6.50;6.00;;;;;8.84;76.54;100912.34;5099353;28;8826;-58
2024/01/25 01:36:22;;;;;;;;;7.00;5.00;;;;;8.79;77.18;100903.78;5098983;28;8822;-60
2024/01/25 01:38:50;;;;;;;;;2.50;2.50;;;;;8.79;77.31;100908.22;5098936;28;8849;-59
2024/01/25 01:41:18;;;;;;;;;8.00;5.00;;;;;8.79;76.91;100919.72;5098307;28;8830;-57
2024/01/25 01:43:46;;;;;;;;;6.00;4.00;;;;;8.80;77.11;100913.47;5099123;28;8825;-59
2024/01/25 01:46:13;;;;;;;;;7.50;4.50;;;;;8.83;76.81;100925.72;5099106;28;8833;-60
2024/01/25 01:48:41;;;;;;;;;4.00;4.00;;;;;8.82;77.08;100919.53;5098693;28;8848;-59
2024/01/25 01:51:09;;;;;;;;;5.50;5.00;;;;;8.82;77.03;100924.84;5099035;28;8822;-59
2024/01/25 01:53:37;;;;;;;;;3.50;2.50;;;;;8.81;76.86;100931.09;5098714;28;8837;-59
2024/01/25 01:56:05;;;;;;;;;4.50;4.00;;;;;8.82;76.95;100935.47;5098903;28;8850;-59
2024/01/25 01:58:33;;;;;;;;;4.50;3.50;;;;;8.84;76.75;100938.91;5098591;28;8814;-60
2024/01/25 02:01:00;;;;;;;;;4.00;4.00;;;;;8.87;76.74;100944.03;5097663;28;8841;-60
2024/01/25 02:03:28;;;;;;;;;11.00;9.50;;;;;8.89;77.11;100944.81;5098093;28;8818;-57
2024/01/25 02:06:02;;;;;;;;;5.00;2.50;;;;;8.89;76.71;100942.16;5098360;28;8826;-59
2024/01/25 02:08:29;;;;;;;;;4.75;3.00;;;;;8.91;76.52;100945.59;5098700;28;8818;-59
2024/01/25 02:10:57;;;;;;;;;3.75;3.00;;;;;8.90;76.74;100962.44;5098277;28;8814;-60
2024/01/25 02:13:26;;;;;;;;;3.00;2.00;;;;;8.89;77.00;100958.09;5098504;28;8833;-60
2024/01/25 02:15:53;;;;;;;;;6.00;4.50;;;;;8.92;76.19;100963.25;5098194;28;8834;-58
2024/01/25 02:18:21;;;;;;;;;7.00;4.00;;;;;8.90;77.05;100957.13;5098322;28;8826;-58
2024/01/25 02:20:49;;;;;;;;;3.00;3.00;;;;;8.90;76.97;100959.78;5097706;28;8961;-59
2024/01/25 02:23:17;;;;;;;;;1.00;1.00;;;;;8.88;76.40;100961.69;5098267;28;9467;-59
2024/01/25 02:25:44;;;;;;;;;3.75;3.00;;;;;8.88;76.95;100955.53;5097804;28;8810;-60
2024/01/25 02:28:12;;;;;;;;;2.50;2.50;;;;;8.87;76.92;100967.94;5098481;28;8837;-57
2024/01/25 02:30:40;;;;;;;;;2.75;1.25;;;;;8.87;76.77;100959.97;5097574;28;8953;-58
2024/01/25 02:33:08;;;;;;;;;3.00;3.00;;;;;8.87;76.92;100967.94;5097721;28;8826;-58
2024/01/25 02:35:36;;;;;;;;;5.00;3.50;;;;;8.86;76.64;100973.31;5096285;28;8842;-60
2024/01/25 02:38:04;;;;;;;;;2.75;1.75;;;;;8.83;76.50;100971.69;5097892;28;8845;-58
2024/01/25 02:40:31;;;;;;;;;4.50;4.00;;;;;8.82;76.80;100975.31;5097563;28;8826;-57
2024/01/25 02:42:59;;;;;;;;;3.00;3.00;;;;;8.81;77.19;100978.91;5097545;28;8826;-57
2024/01/25 02:45:27;;;;;;;;;4.00;3.00;;;;;8.79;76.89;100972.81;5097467;28;9491;-58
2024/01/25 02:47:54;;;;;;;;;4.25;2.75;;;;;8.78;76.93;100971.13;5097234;28;8850;-57
2024/01/25 02:50:24;;;;;;;;;1.50;1.50;;;;;8.78;76.95;100975.56;5096821;28;8905;-57
2024/01/25 02:52:52;;;;;;;;;1.00;1.00;;;;;8.77;76.75;100974.72;5097743;28;8873;-59
2024/01/25 02:55:20;;;;;;;;;2.00;2.00;;;;;8.75;77.00;100976.59;5097337;28;8834;-59
2024/01/25 02:57:48;;;;;;;;;3.00;3.00;;;;;8.73;77.05;100978.47;5096935;28;8833;-57
2024/01/25 03:00:16;;;;;;;;;3.25;1.75;;;;;8.72;76.88;100979.41;5097639;28;8846;-58
2024/01/25 03:02:44;;;;;;;;;4.00;3.00;;;;;8.69;77.27;100982.25;5097359;28;8956;-59
2024/01/25 03:05:11;;;;;;;;;3.75;2.50;;;;;8.68;77.04;100990.28;5096973;28;8826;-57
2024/01/25 03:07:39;;;;;;;;;3.25;3.00;;;;;8.65;77.08;100986.00;5097771;28;8824;-57
2024/01/25 03:10:07;;;;;;;;;3.00;2.00;;;;;8.62;77.03;100980.88;5097091;28;8883;-60
2024/01/25 03:12:35;;;;;;;;;2.00;2.00;;;;;8.60;77.28;100992.53;5097432;28;8818;-59
2024/01/25 03:15:03;;;;;;;;;0.00;0.00;;;;;8.55;77.64;100989.25;5097109;28;8852;-59
2024/01/25 03:17:33;;;;;;;;;3.00;3.00;;;;;8.50;77.46;100994.81;5096895;28;9528;-60
2024/01/25 03:20:01;;;;;;;;;4.00;3.00;;;;;8.50;77.68;101001.94;5096525;28;8830;-59
2024/01/25 03:22:29;;;;;;;;;3.00;3.00;;;;;8.49;77.28;100995.75;5096791;28;8838;-58
2024/01/25 03:24:57;;;;;;;;;3.50;3.50;;;;;8.49;77.25;101006.38;5096540;28;8846;-58
2024/01/25 03:27:24;;;;;;;;;2.50;2.50;;;;;8.50;77.32;101007.25;5096969;28;8825;-57
2024/01/25 03:29:52;;;;;;;;;1.00;1.00;;;;;8.49;77.62;101010.81;5096206;28;8825;-57
2024/01/25 03:32:20;;;;;;;;;3.00;3.00;;;;;8.47;77.34;101008.25;5096588;28;9491;-59
2024/01/25 03:34:48;;;;;;;;;3.00;3.00;;;;;8.46;77.63;101011.88;5096391;28;8903;-60
2024/01/25 03:37:15;;;;;;;;;3.50;3.00;;;;;8.46;77.30;101011.00;5095738;28;8838;-57
2024/01/25 03:39:43;;;;;;;;;2.00;2.00;;;;;8.45;77.60;101015.44;5095725;28;8976;-57
2024/01/25 03:42:11;;;;;;;;;2.50;2.50;;;;;8.43;77.71;101022.63;5095748;28;8903;-57
2024/01/25 03:44:42;;;;;;;;;4.00;3.00;;;;;8.43;77.83;101019.13;5095729;28;8834;-58
2024/01/25 03:47:09;;;;;;;;;3.00;2.50;;;;;8.41;77.32;101021.84;5094467;28;8854;-60
2024/01/25 03:49:37;;;;;;;;;3.00;1.00;;;;;8.40;77.43;101020.16;5095512;28;8818;-60
2024/01/25 03:52:05;;;;;;;;;3.75;3.50;;;;;8.37;77.38;101027.41;5096026;28;9621;-60
2024/01/25 03:54:33;;;;;;;;;3.00;3.00;;;;;8.31;77.85;101033.03;5095590;28;8891;-58
2024/01/25 03:57:00;;;;;;;;;2.50;2.50;;;;;8.25;78.15;101023.63;5096157;28;8903;-57
2024/01/25 03:59:28;;;;;;;;;4.00;3.75;;;;;8.18;78.06;101039.88;5096386;28;8971;-57
2024/01/25 04:01:56;;;;;;;;;2.00;2.00;;;;;8.09;77.96;101038.59;5094753;28;8853;-58
2024/01/25 04:04:24;;;;;;;;;3.00;3.00;;;;;8.01;78.04;101048.75;5095869;28;8806;-57
2024/01/25 04:06:52;;;;;;;;;1.00;1.00;;;;;7.91;78.53;101058.09;5094852;28;8826;-57
2024/01/25 04:09:20;;;;;;;;;6.00;4.00;;;;;7.82;78.58;101052.38;5094854;28;9503;-57
2024/01/25 04:11:48;;;;;;;;;4.00;3.50;;;;;7.73;78.91;101051.06;5096140;28;9491;-58
2024/01/25 04:14:16;;;;;;;;;5.00;2.50;;;;;7.68;79.09;101041.66;5095437;28;8947;-60
2024/01/25 04:16:46;;;;;;;;;3.25;3.00;;;;;7.64;79.12;101041.88;5095249;28;8868;-59
2024/01/25 04:19:14;;;;;;;;;1.00;1.00;;;;;7.60;79.28;101035.00;5095208;28;8929;-58
2024/01/25 04:21:42;;;;;;;;;2.25;2.00;;;;;7.54;79.10;101048.53;5094664;28;8852;-60
2024/01/25 04:24:09;;;;;;;;;3.25;2.50;;;;;7.48;79.22;101036.47;5095302;28;8915;-56
2024/01/25 04:26:37;;;;;;;;;6.00;3.00;;;;;7.45;79.32;101043.72;5094795;28;8833;-58
2024/01/25 04:29:06;;;;;;;;;1.00;1.00;;;;;7.39;79.59;101044.88;5095744;28;8822;-57
2024/01/25 04:31:33;;;;;;;;;2.50;2.00;;;;;7.34;79.64;101049.53;5095769;28;8834;-57
2024/01/25 04:34:01;;;;;;;;;2.50;2.50;;;;;7.26;79.77;101049.03;5095843;28;8818;-58
2024/01/25 04:36:29;;;;;;;;;3.75;3.25;;;;;7.21;79.83;101051.03;5095763;28;8856;-60
2024/01/25 04:38:57;;;;;;;;;3.25;2.00;;;;;7.15;80.18;101050.50;5095754;28;8818;-57
2024/01/25 04:41:25;;;;;;;;;3.00;3.00;;;;;7.09;80.30;101045.47;5096078;28;8814;-59
2024/01/25 04:43:52;;;;;;;;;3.50;3.00;;;;;7.06;80.14;101045.66;5095510;28;8822;-58
2024/01/25 04:46:20;;;;;;;;;3.00;3.00;;;;;6.99;80.13;101036.28;5096156;28;9483;-57
2024/01/25 04:48:48;;;;;;;;;2.50;2.50;;;;;6.95;80.18;101035.56;5095924;28;8826;-57
2024/01/25 04:51:17;;;;;;;;;3.75;3.00;;;;;6.94;80.29;101035.63;5094942;28;8953;-59
2024/01/25 04:53:44;;;;;;;;;0.00;0.00;;;;;6.92;80.18;101034.84;5094683;28;8830;-58
2024/01/25 04:56:12;;;;;;;;;4.50;1.00;;;;;6.88;79.94;101030.59;5094594;28;9606;-57
2024/01/25 04:58:40;;;;;;;;;1.00;1.00;;;;;6.82;80.71;101047.66;5095436;28;9475;-57
2024/01/25 05:01:07;;;;;;;;;3.00;3.00;;;;;6.79;79.98;101039.88;5095573;28;8850;-58
2024/01/25 05:03:35;;;;;;;;;1.00;1.00;;;;;6.75;79.94;101046.22;5094712;28;8848;-59
2024/01/25 05:06:03;;;;;;;;;2.00;2.00;;;;;6.72;80.07;101056.09;5095153;28;8818;-59
2024/01/25 05:08:31;;;;;;;;;1.00;1.00;;;;;6.69;80.42;101050.94;5095522;28;9487;-57
2024/01/25 05:10:59;;;;;;;;;2.00;2.00;;;;;6.66;80.71;101048.44;5095435;28;8968;-59
2024/01/25 05:13:27;;;;;;;;;1.50;1.50;;;;;6.65;80.77;101054.66;5095256;28;9639;-58
2024/01/25 05:15:55;;;;;;;;;3.00;3.00;;;;;6.66;80.83;101051.09;5094323;28;8842;-58
2024/01/25 05:18:22;;;;;;;;;1.25;0.25;;;;;6.65;80.81;101060.81;5094681;28;8906;-57
2024/01/25 05:20:50;;;;;;;;;0.50;0.50;;;;;6.60;80.59;101060.16;5095521;28;8818;-57
2024/01/25 05:23:18;;;;;;;;;1.00;0.00;;;;;6.56;80.89;101055.06;5095425;28;8822;-58
2024/01/25 05:25:46;;;;;;;;;1.00;1.00;;;;;6.51;81.06;101057.09;5095696;28;8953;-57
2024/01/25 05:28:13;;;;;;;;;3.50;2.50;;;;;6.46;80.94;101065.19;5094474;28;8822;-58
2024/01/25 05:30:41;;;;;;;;;1.00;1.00;;;;;6.46;80.75;101064.34;5094706;28;8825;-58
2024/01/25 05:33:09;;;;;;;;;2.50;2.00;;;;;6.43;80.67;101072.41;5094827;28;8833;-59
2024/01/25 05:35:37;;;;;;;;;3.50;3.00;;;;;6.41;80.99;101063.69;5095430;28;8916;-59
2024/01/25 05:38:05;;;;;;;;;3.00;3.00;;;;;6.38;80.95;101056.75;5097977;28;8845;-58
2024/01/25 05:40:34;;;;;;;;;1.00;1.00;;;;;6.37;80.93;101070.06;5097875;28;8834;-58
2024/01/25 05:43:03;;;;;;;;;1.50;1.00;;;;;6.32;80.56;101077.34;5098149;28;8826;-60
2024/01/25 05:45:30;;;;;;;;;3.00;3.00;;;;;6.28;80.97;101075.75;5098276;28;8830;-60
2024/01/25 05:47:58;;;;;;;;;2.00;1.00;;;;;6.20;81.11;101072.56;5097726;28;8880;-59
2024/01/25 05:50:26;;;;;;;;;2.00;2.00;;;;;6.17;81.05;101072.72;5098094;28;8826;-60
2024/01/25 05:52:54;;;;;;;;;3.40;1.80;;;;;6.10;81.61;101066.84;5097946;28;9587;-59
2024/01/25 05:55:22;;;;;;;;;2.50;2.50;;;;;6.06;81.45;101069.69;5097044;28;8825;-60
2024/01/25 05:57:50;;;;;;;;;3.00;2.50;;;;;6.02;81.53;101078.66;5096981;28;8822;-59
2024/01/25 06:00:19;;;;;;;;;3.00;1.80;;;;;6.00;81.46;101076.09;5096769;28;8922;-60
2024/01/25 06:02:48;;;;;;;;;7.00;4.00;;;;;5.98;81.71;101079.72;5097284;28;9760;-60
2024/01/25 06:05:18;;;;;;;;;0.00;0.00;;;;;5.96;81.67;101076.28;5097327;28;8897;-60
2024/01/25 06:07:48;;;;;;;;;3.80;1.40;;;;;5.94;81.83;101078.13;5097542;28;8840;-59
2024/01/25 06:10:16;;;;;;;;;1.40;1.40;;;;;5.91;81.62;101080.94;5097644;28;9580;-57
2024/01/25 06:12:44;;;;;;;;;0.00;0.00;;;;;5.87;81.74;101090.78;5097049;28;9632;-60
2024/01/25 06:15:12;;;;;;;;;2.40;1.80;;;;;5.86;82.02;101082.91;5096912;28;8818;-57
2024/01/25 06:17:40;;;;;;;;;1.80;1.00;;;;;5.84;82.07;101080.31;5096633;28;8999;-57
2024/01/25 06:20:08;;;;;;;;;1.00;0.40;;;;;5.83;81.88;101075.94;5096471;28;8915;-57
2024/01/25 06:22:36;;;;;;;;;6.00;3.20;;;;;5.84;81.74;101084.75;5097017;28;8891;-57
2024/01/25 06:25:04;;;;;;;;;2.20;2.20;;;;;5.83;81.63;101097.09;5096169;28;9685;-59
2024/01/25 06:27:35;;;;;;;;;2.60;1.80;;;;;5.84;81.87;101095.31;5095775;28;8961;-59
2024/01/25 06:30:04;;;;;;;;;1.80;0.80;;;;;5.84;81.74;101100.59;5096362;28;8825;-58
2024/01/25 06:32:31;;;;;;;;;1.00;1.00;;;;;5.85;81.69;101097.03;5095733;28;8956;-59
2024/01/25 06:34:59;;;;;;;;;6.00;4.40;;;;;5.86;81.56;101089.03;5096022;28;8836;-58
2024/01/25 06:37:27;;;;;;;;;6.20;4.00;;;;;5.85;81.44;101091.75;5096980;28;8830;-59
2024/01/25 06:39:55;;;;;;;;;3.40;3.40;;;;;5.83;81.83;101096.22;5096527;28;9495;-57
2024/01/25 06:42:23;;;;;;;;;2.60;2.60;;;;;5.79;81.83;101102.53;5096294;28;8843;-59
2024/01/25 06:44:51;;;;;;;;;5.60;5.20;;;;;5.79;81.71;101099.91;5096228;28;8918;-58
2024/01/25 06:47:19;;;;;;;;;2.60;1.40;;;;;5.79;81.41;101107.81;5095618;28;8844;-57
2024/01/25 06:49:51;;;;;;;;;1.00;1.00;;;;;5.77;81.82;101107.03;5095497;28;8842;-60
2024/01/25 06:52:19;;;;;;;;;3.00;1.00;;;;;5.77;81.65;101115.81;5095300;28;8829;-59
2024/01/25 06:54:48;;;;;;;;;5.60;4.40;;;;;5.76;81.77;101103.53;5094765;28;8830;-59
2024/01/25 06:57:16;;;;;;;;;3.00;2.60;;;;;5.75;81.86;101119.44;5092524;28;8911;-57
2024/01/25 06:59:44;;;;;;;;;1.00;1.00;;;;;5.77;81.82;101125.53;5094870;28;8903;-57
2024/01/25 07:02:13;;;;;;;;;0.00;0.00;;;;;5.77;82.02;101130.81;5094041;28;8834;-58
2024/01/25 07:04:41;;;;;;;;;3.80;3.00;;;;;5.79;81.92;101139.53;5094485;28;8947;-59
2024/01/25 07:07:10;;;;;;;;;7.00;4.00;;;;;5.78;82.04;101143.09;5093525;28;8976;-58
2024/01/25 07:09:38;;;;;;;;;8.00;6.40;;;;;5.76;81.77;101140.50;5093740;28;8833;-57
2024/01/25 07:12:05;;;;;;;;;3.00;1.40;;;;;5.76;81.97;101147.59;5093314;28;8822;-59
2024/01/25 07:14:33;;;;;;;;;6.20;3.40;;;;;5.75;81.87;101154.66;5094470;28;8834;-58
2024/01/25 07:17:01;;;;;;;;;0.60;0.60;;;;;5.75;82.09;101138.81;5094241;28;8869;-57
2024/01/25 07:19:29;;;;;;;;;1.00;1.00;;;;;5.76;82.15;101137.03;5094096;28;8830;-58
2024/01/25 07:21:57;;;;;;;;;3.40;2.80;;;;;5.76;81.94;101142.31;5092934;28;9111;-59
2024/01/25 07:24:26;;;;;;;;;6.20;4.80;;;;;5.77;81.57;101146.69;5094489;28;8834;-59
2024/01/25 07:26:54;;;;;;;;;3.20;3.20;;;;;5.78;82.29;101145.75;5095618;28;8818;-59
2024/01/25 07:29:23;;;;;;;;;3.00;1.80;;;;;5.78;81.93;101143.94;5094783;28;8846;-57
2024/01/25 07:31:51;;;;;;;;;1.80;1.80;;;;;5.80;82.01;101147.44;5094621;28;8825;-57
2024/01/25 07:34:19;;;;;;;;;2.60;2.20;;;;;5.82;81.61;101148.22;5095584;28;8829;-57
2024/01/25 07:36:47;;;;;;;;;4.00;3.20;;;;;5.83;81.72;101139.38;5095229;28;9519;-57
2024/01/25 07:39:15;;;;;;;;;2.60;2.60;;;;;5.84;81.84;101143.72;5095610;28;8822;-64
2024/01/25 07:41:43;;;;;;;;;6.00;3.40;;;;;5.86;81.77;101148.97;5095405;28;8860;-58
2024/01/25 07:44:11;;;;;;;;;5.20;4.40;;;;;5.86;82.30;101151.63;5095748;28;9671;-59
2024/01/25 07:46:40;;;;;;;;;4.00;4.00;;;;;5.89;82.13;101151.47;5095399;28;8903;-60
2024/01/25 07:49:08;;;;;;;;;3.60;3.00;;;;;5.90;81.66;101159.34;5096120;28;8818;-59
2024/01/25 07:51:36;;;;;;;;;2.20;2.20;;;;;5.92;81.80;101156.66;5095376;28;8842;-57
2024/01/25 07:54:04;;;;;;;;;5.20;4.80;;;;;5.95;81.58;101153.88;5095368;28;8829;-57
2024/01/25 07:56:32;;;;;;;;;3.40;3.40;;;;;5.97;81.69;101159.94;5095999;28;8837;-57
2024/01/25 07:59:00;;;;;;;;;3.40;3.00;;;;;5.99;81.65;101152.84;5094283;28;8838;-58
2024/01/25 08:01:28;;;;;;;;;3.20;3.00;;;;;6.02;81.43;101152.69;5095084;28;8826;-59
2024/01/25 08:03:56;;;;;;;;;5.40;5.40;;;;;6.05;81.62;101139.34;5094975;28;8830;-58
2024/01/25 08:06:26;;;;;;;;;3.60;2.60;;;;;6.07;81.46;101140.16;5095490;28;9654;-56
2024/01/25 08:08:54;;;;;;;;;5.20;5.20;;;;;6.10;81.33;101140.00;5094590;28;9507;-58
2024/01/25 08:11:22;;;;;;;;;2.60;2.60;;;;;6.13;81.25;101139.88;5094784;28;8830;-59
2024/01/25 08:13:50;;;;;;;;;3.60;2.20;;;;;6.15;81.21;101138.88;5094836;28;8821;-57
2024/01/25 08:16:20;;;;;;;;;4.00;2.60;;;;;6.18;81.70;101127.31;5094848;28;8849;-57
2024/01/25 08:18:48;;;;;;;;;8.40;6.60;;;;;6.19;81.33;101129.03;5095067;28;8838;-59
2024/01/25 08:21:17;;;;;;;;;14.40;11.60;;;;;6.22;81.00;101139.50;5094755;28;8861;-59
2024/01/25 08:23:45;;;;;;;;;5.20;3.40;;;;;6.25;81.39;101134.06;5093916;28;8826;-57
2024/01/25 08:26:13;;;;;;;;;11.60;10.20;;;;;6.29;81.30;101135.66;5093707;28;8830;-58
2024/01/25 08:28:43;;;;;;;;;8.40;7.00;;;;;6.33;81.10;101134.59;5093928;28;8865;-59
2024/01/25 08:31:10;;;;;;;;;6.60;5.20;;;;;6.36;81.34;101137.97;5094178;28;8858;-58
2024/01/25 08:33:41;;;;;;;;;12.40;10.40;;;;;6.40;80.92;101138.69;5094272;28;8822;-57
2024/01/25 08:36:09;;;;;;;;;12.80;12.00;;;;;6.43;81.13;101138.56;5093724;28;8912;-58
2024/01/25 08:38:38;;;;;;;;;9.20;8.20;;;;;6.48;81.00;101139.22;5099634;28;8910;-59
2024/01/25 08:41:07;;;;;;;;;11.40;6.60;;;;;6.53;81.00;101153.97;5098550;28;8910;-57
2024/01/25 08:43:35;;;;;;;;;6.60;6.40;;;;;6.57;81.06;101152.91;5094076;28;8864;-59
2024/01/25 08:46:03;;;;;;;;;9.00;9.00;;;;;6.61;80.48;101153.63;5093874;28;8841;-57
2024/01/25 08:48:31;;;;;;;;;9.00;9.00;;;;;6.63;80.81;101146.47;5093261;28;8833;-57
2024/01/25 08:50:59;;;;;;;;;9.80;9.40;;;;;6.67;80.59;101148.91;5093482;28;8829;-60
2024/01/25 08:53:28;;;;;;;;;11.60;9.80;;;;;6.70;80.66;101150.56;5094033;28;8825;-60
2024/01/25 08:55:56;;;;;;;;;13.00;12.20;;;;;6.74;80.66;101157.47;5094644;28;8830;-59
2024/01/25 08:58:23;;;;;;;;;11.40;10.00;;;;;6.77;80.83;101155.53;5094473;28;8844;-58
2024/01/25 09:00:52;;;;;;;;;11.60;7.80;;;;;6.81;80.64;101153.63;5094759;28;8850;-57
2024/01/25 09:03:20;;;;;;;;;15.60;14.20;;;;;6.87;80.55;101155.97;5093768;28;8841;-57
2024/01/25 09:05:48;;;;;;;;;11.20;8.60;;;;;6.90;80.53;101155.84;5093273;28;8822;-57
2024/01/25 09:08:16;;;;;;;;;18.00;15.00;;;;;6.95;80.35;101165.28;5092791;28;8821;-59
2024/01/25 09:10:45;;;;;;;;;9.20;8.60;;;;;7.00;80.29;101165.97;5094059;28;8838;-58
2024/01/25 09:13:13;;;;;;;;;8.80;6.40;;;;;7.05;80.13;101166.59;5097550;28;8852;-59
2024/01/25 09:15:43;;;;;;;;;6.00;6.00;;;;;7.10;80.25;101172.53;5097569;28;8901;-57
2024/01/25 09:18:11;;;;;;;;;11.20;11.20;;;;;7.13;80.07;101171.53;5097583;28;8868;-57
2024/01/25 09:20:39;;;;;;;;;10.50;10.00;;;;;7.18;80.10;101169.53;5098047;28;8836;-57
2024/01/25 09:23:07;;;;;;;;;11.60;8.60;;;;;7.24;80.11;101162.19;5097301;28;8960;-57
2024/01/25 09:25:34;;;;;;;;;15.80;13.80;;;;;7.33;79.78;101171.47;5097953;28;8830;-58
2024/01/25 09:28:04;;;;;;;;;13.60;10.60;;;;;7.42;80.00;101173.69;5097367;28;8825;-58
2024/01/25 09:30:32;;;;;;;;;10.00;7.50;;;;;7.52;79.23;101173.19;5098187;28;8850;-57
2024/01/25 09:33:00;;;;;;;;;12.00;10.00;;;;;7.62;79.67;101178.91;5097411;28;8842;-56
2024/01/25 09:35:28;;;;;;;;;14.60;10.80;;;;;7.70;79.63;101182.91;5098129;28;8960;-58
2024/01/25 09:37:57;;;;;;;;;11.00;10.00;;;;;7.76;79.16;101175.50;5097403;28;8826;-58
2024/01/25 09:40:25;;;;;;;;;7.75;6.75;;;;;7.83;79.19;101173.44;5097671;28;8818;-58
2024/01/25 09:42:53;;;;;;;;;10.75;9.75;;;;;7.86;79.23;101178.59;5098323;28;8840;-59
2024/01/25 09:45:21;;;;;;;;;9.50;9.00;;;;;7.87;79.13;101172.34;5097859;28;8838;-57
2024/01/25 09:47:49;;;;;;;;;6.00;6.00;;;;;7.83;79.03;101184.88;5097685;28;8857;-57
2024/01/25 09:50:18;;;;;;;;;15.25;12.25;;;;;7.80;79.39;101181.53;5097094;28;8848;-57
2024/01/25 09:52:46;;;;;;;;;11.50;9.25;;;;;7.79;79.51;101183.34;5097272;28;8838;-57
2024/01/25 09:55:17;;;;;;;;;7.50;3.75;;;;;7.83;79.51;101179.59;5097454;28;9504;-58
2024/01/25 09:57:46;;;;;;;;;1.00;1.00;;;;;7.90;79.78;101177.50;5097054;28;8914;-60
2024/01/25 10:00:14;;;;;;;;;8.00;5.00;;;;;7.91;79.20;101187.19;5096863;28;8914;-59
2024/01/25 10:02:42;;;;;;;;;6.25;4.00;;;;;7.93;79.07;101193.25;5097245;28;8864;-58
2024/01/25 10:05:10;;;;;;;;;14.50;12.00;;;;;7.94;79.12;101189.66;5097257;28;8826;-57
2024/01/25 10:07:38;;;;;;;;;9.25;8.00;;;;;7.97;79.28;101198.34;5096529;28;8834;-57
2024/01/25 10:10:06;;;;;;;;;9.25;8.00;;;;;8.04;79.10;101194.44;5096447;28;8849;-60
2024/01/25 10:12:34;;;;;;;;;10.00;9.00;;;;;8.09;78.97;101195.09;5096581;28;8845;-59
2024/01/25 10:15:02;;;;;;;;;9.00;9.00;;;;;8.17;79.00;101195.56;5096525;28;9559;-60
2024/01/25 10:17:30;;;;;;;;;7.00;6.00;;;;;8.24;78.68;101196.16;5095529;28;8907;-60
2024/01/25 10:20:20;;;;;;;;;9.50;6.75;;;;;8.32;78.97;101186.88;5096374;28;8846;-59
2024/01/25 10:22:53;;;;;;;;;5.00;5.00;;;;;8.46;79.06;101181.72;5095587;28;8828;-57
2024/01/25 10:25:26;;;;;;;;;10.00;8.50;;;;;8.58;78.47;101183.72;5096768;28;9548;-58
2024/01/25 10:27:54;;;;;;;;;10.50;9.00;;;;;8.67;78.01;101179.75;5096672;28;8846;-57
2024/01/25 10:30:23;;;;;;;;;7.00;6.25;;;;;8.79;78.00;101187.94;5096343;28;8952;-58
2024/01/25 10:32:51;;;;;;;;;10.50;10.00;;;;;8.96;78.38;101195.03;5096898;28;8830;-58
2024/01/25 10:35:19;;;;;;;;;9.75;8.50;;;;;9.22;77.51;101189.16;5096507;28;8825;-59
2024/01/25 10:37:51;;;;;;;;;7.00;5.75;;;;;9.36;76.53;101178.63;5096512;28;9017;-58
2024/01/25 10:40:19;;;;;;;;;10.00;8.50;;;;;9.43;76.74;101180.84;5095962;28;8899;-57
2024/01/25 10:42:48;;;;;;;;;7.00;6.50;;;;;9.50;76.20;101168.09;5095982;28;8919;-57
2024/01/25 10:45:16;;;;;;;;;9.50;7.50;;;;;9.63;75.90;101159.34;5096532;28;8826;-57
2024/01/25 10:47:44;;;;;;;;;8.00;6.75;;;;;9.84;75.83;101167.91;5095972;28;8850;-58
2024/01/25 10:50:13;;;;;;;;;9.25;9.00;;;;;10.09;75.49;101153.13;5096488;28;8826;-60
2024/01/25 10:52:41;;;;;;;;;8.50;8.00;;;;;10.24;74.96;101146.91;5096406;28;8828;-60
2024/01/25 10:55:09;;;;;;;;;6.75;3.50;;;;;10.19;75.38;101141.03;5096439;28;8848;-57
2024/01/25 10:57:38;;;;;;;;;6.00;4.00;;;;;10.07;75.06;101144.41;5096094;28;8830;-57
2024/01/25 11:00:07;;;;;;;;;10.00;7.50;;;;;10.13;75.61;101130.72;5095643;28;8956;-59
2024/01/25 11:02:35;;;;;;;;;5.50;5.00;;;;;10.28;74.91;101129.81;5094668;28;8859;-60
2024/01/25 11:05:04;;;;;;;;;6.00;5.00;;;;;10.38;75.08;101133.66;5095108;28;8914;-59
2024/01/25 11:07:32;;;;;;;;;4.50;4.50;;;;;10.42;74.99;101135.19;5095303;28;8841;-60
2024/01/25 11:10:01;;;;;;;;;5.50;4.75;;;;;10.36;74.72;101132.88;5095876;28;9597;-58
2024/01/25 11:12:29;;;;;;;;;2.00;0.50;;;;;10.15;75.52;101134.16;5096009;28;8818;-59
2024/01/25 11:15:00;;;;;;;;;3.50;0.75;;;;;9.96;76.06;101138.78;5095703;28;8834;-58
2024/01/25 11:17:28;;;;;;;;;6.00;4.00;;;;;9.77;76.24;101132.81;5095994;28;8956;-59
2024/01/25 11:19:56;;;;;;;;;5.25;4.00;;;;;9.58;76.63;101134.81;5095190;28;8960;-58
2024/01/25 11:22:24;;;;;;;;;6.50;6.00;;;;;9.43;77.26;101138.31;5094621;28;9083;-59
2024/01/25 11:24:53;;;;;;;;;4.00;3.00;;;;;9.30;77.85;101133.78;5095001;28;8852;-59
2024/01/25 11:27:21;;;;;;;;;9.25;6.75;;;;;9.25;77.43;101126.06;5093631;28;8822;-58
2024/01/25 11:29:49;;;;;;;;;4.50;4.50;;;;;9.21;78.09;101124.53;5094548;28;8818;-58
2024/01/25 11:32:18;;;;;;;;;5.50;4.00;;;;;9.18;77.64;101126.50;5093940;28;8829;-58
2024/01/25 11:34:46;;;;;;;;;9.00;8.50;;;;;9.20;78.01;101122.78;5094828;28;8826;-58
2024/01/25 11:37:14;;;;;;;;;8.00;7.25;;;;;9.29;77.32;101113.47;5094180;28;8868;-59
2024/01/25 11:39:42;;;;;;;;;7.00;6.50;;;;;9.41;77.25;101108.31;5094012;28;8948;-56
2024/01/25 11:42:10;;;;;;;;;6.75;5.75;;;;;9.60;76.98;101105.47;5093600;28;8830;-57